Mascote, Brazil
Current Conditions -  °F | °C
As of 6:00 PM on Sunday 21 Dec 2014 (Local Time) from SBIL Reporting Station
Few Clouds Few Clouds  
Wind Chill: 81°   Ceiling: Unl
Heat Index: 85°   Visibility: 6mi
Dew Point: 73°   Wind: 6mph
Humidity: 79%   Direction: 260°W
Pressure: 29.91"   Gusts: NA
Location:  15.56°S, 39.3°W
Report Text: SBIL 212100Z 26005KT 9999 FEW020 27/23 Q1013
Loading
Personal Weather Stations






























Interactive Weather Map New forecast layout! Learn more

10-Day Weather Forecast

Advertisements
Track Severe Weather on mobile